Time;durP1;ratioP1;P1;durP2;ratioP2;P2;SDS_P1;SDS_P2;PMS_P1;PMS_P2;Temp;Humidity;BMP_temperature;BMP_pressure;BME280_temperature;BME280_humidity;BME280_pressure;Samples;Min_cycle;Max_cycle;Signal;HPM_P1;HPM_P2
2022/11/08 00:01:32;;;;;;;0.77;0.55;;;;;;;;;;5113239;28;20050;-79
2022/11/08 00:04:02;;;;;;;0.70;0.70;;;;;;;;;;5114736;28;20143;-78
2022/11/08 00:14:39;;;;;;;1.65;1.55;;;;;;;;;;5113276;28;20050;-78
2022/11/08 00:17:04;;;;;;;0.70;0.68;;;;;;;;;;5130244;28;20031;-79
2022/11/08 00:19:30;;;;;;;0.65;0.50;;;;;;;;;;5103284;28;20051;-78
2022/11/08 00:21:55;;;;;;;0.70;0.70;;;;;;;;;;5101874;28;20035;-78
2022/11/08 00:24:21;;;;;;;1.20;1.20;;;;;;;;;;5110640;28;20028;-78
2022/11/08 00:26:46;;;;;;;1.75;1.50;;;;;;;;;;5112942;28;20050;-77
2022/11/08 00:29:11;;;;;;;2.15;1.42;;;;;;;;;;5112983;28;20036;-78
2022/11/08 00:31:37;;;;;;;0.70;0.70;;;;;;;;;;5112443;28;20044;-79
2022/11/08 00:34:02;;;;;;;0.85;0.70;;;;;;;;;;5111982;28;20023;-77
2022/11/08 00:36:27;;;;;;;1.30;0.90;;;;;;;;;;5112908;28;20063;-78
2022/11/08 00:38:53;;;;;;;1.55;0.65;;;;;;;;;;5112349;28;20034;-78
2022/11/08 00:41:19;;;;;;;1.42;1.33;;;;;;;;;;5112486;28;20058;-77
2022/11/08 00:43:44;;;;;;;1.75;1.65;;;;;;;;;;5112372;28;20040;-77
2022/11/08 00:46:09;;;;;;;1.02;0.70;;;;;;;;;;5112261;28;20038;-78
2022/11/08 00:48:35;;;;;;;0.75;0.60;;;;;;;;;;5094150;28;20131;-78
2022/11/08 00:51:04;;;;;;;1.65;1.52;;;;;;;;;;5111504;28;20039;-78
2022/11/08 00:53:30;;;;;;;;;;;;;;;;;;5110976;28;20035;-79
2022/11/08 00:55:59;;;;;;;2.83;1.60;;;;;;;;;;5111041;28;19918;-77
2022/11/08 00:58:25;;;;;;;1.48;1.45;;;;;;;;;;5111196;28;20035;-78
2022/11/08 01:00:50;;;;;;;1.35;1.33;;;;;;;;;;5110354;28;20036;-78
2022/11/08 01:03:18;;;;;;;0.75;0.50;;;;;;;;;;5110564;28;20455;-78
2022/11/08 01:05:44;;;;;;;1.10;1.00;;;;;;;;;;5110746;28;20100;-77
2022/11/08 01:08:10;;;;;;;1.63;1.52;;;;;;;;;;5110530;28;20031;-78
2022/11/08 01:10:36;;;;;;;2.03;1.33;;;;;;;;;;5092652;28;20028;-78
2022/11/08 01:13:01;;;;;;;0.60;0.60;;;;;;;;;;5110733;28;20063;-79
2022/11/08 01:15:27;;;;;;;1.58;1.50;;;;;;;;;;5092517;28;20035;-78
2022/11/08 01:17:52;;;;;;;1.65;1.55;;;;;;;;;;5092306;28;20035;-78
2022/11/08 01:20:18;;;;;;;1.58;1.58;;;;;;;;;;5092946;28;20085;-79
2022/11/08 01:22:43;;;;;;;1.55;1.48;;;;;;;;;;5110474;28;20035;-78
2022/11/08 01:25:08;;;;;;;1.52;1.42;;;;;;;;;;5110350;28;20035;-78
2022/11/08 01:27:34;;;;;;;1.63;1.52;;;;;;;;;;5092328;28;20056;-78
2022/11/08 01:29:59;;;;;;;1.35;1.35;;;;;;;;;;5110596;28;20036;-78
2022/11/08 01:32:24;;;;;;;1.55;0.70;;;;;;;;;;5110359;28;20087;-78
2022/11/08 01:34:50;;;;;;;1.38;1.38;;;;;;;;;;5110627;28;20038;-78
2022/11/08 01:37:15;;;;;;;1.58;1.48;;;;;;;;;;5110522;28;20045;-78
2022/11/08 01:39:41;;;;;;;0.63;0.63;;;;;;;;;;5110307;28;20035;-78
2022/11/08 01:42:06;;;;;;;0.80;0.60;;;;;;;;;;5111123;28;20057;-80
2022/11/08 01:44:31;;;;;;;1.70;1.60;;;;;;;;;;5111142;28;20035;-79
2022/11/08 01:46:57;;;;;;;0.70;0.70;;;;;;;;;;5110808;28;20067;-80
2022/11/08 01:49:25;;;;;;;1.63;1.52;;;;;;;;;;5110908;28;20035;-80
2022/11/08 01:51:57;;;;;;;1.35;1.25;;;;;;;;;;5111951;28;20032;-81
2022/11/08 01:54:27;;;;;;;1.52;1.42;;;;;;;;;;5111785;28;20065;-80
2022/11/08 01:56:53;;;;;;;1.48;1.38;;;;;;;;;;5112397;28;20085;-80
2022/11/08 01:59:18;;;;;;;1.30;1.30;;;;;;;;;;5093704;28;20031;-80
2022/11/08 02:01:44;;;;;;;1.58;1.48;;;;;;;;;;5111565;28;20037;-80
2022/11/08 02:04:09;;;;;;;0.77;0.77;;;;;;;;;;5093559;28;20146;-82
2022/11/08 02:06:37;;;;;;;0.95;0.85;;;;;;;;;;5112367;28;20427;-80
2022/11/08 02:09:03;;;;;;;0.70;0.70;;;;;;;;;;5111602;28;20500;-80
2022/11/08 02:11:29;;;;;;;1.63;1.52;;;;;;;;;;5112553;28;20035;-79
2022/11/08 02:13:55;;;;;;;1.42;1.35;;;;;;;;;;5097322;28;20039;-80
2022/11/08 02:16:20;;;;;;;3.95;1.38;;;;;;;;;;5097066;28;20028;-81
2022/11/08 02:18:46;;;;;;;1.52;1.42;;;;;;;;;;5115375;28;20036;-78
2022/11/08 02:21:24;;;;;;;0.70;0.70;;;;;;;;;;5115289;28;20038;-78
2022/11/08 02:23:53;;;;;;;1.65;1.55;;;;;;;;;;5114727;28;20121;-78
2022/11/08 02:26:18;;;;;;;;;;;;;;;;;;5115606;28;20036;-79
2022/11/08 02:28:47;;;;;;;0.67;0.63;;;;;;;;;;5115272;28;20378;-79
2022/11/08 02:31:14;;;;;;;0.80;0.65;;;;;;;;;;5114856;28;20063;-78
2022/11/08 02:33:40;;;;;;;1.23;1.20;;;;;;;;;;5115023;28;20565;-81
2022/11/08 02:36:05;;;;;;;3.28;1.55;;;;;;;;;;5115347;28;20073;-79
2022/11/08 02:38:32;;;;;;;0.60;0.60;;;;;;;;;;5114958;28;20031;-78
2022/11/08 02:40:58;;;;;;;0.90;0.70;;;;;;;;;;5096982;28;20390;-79
2022/11/08 02:43:23;;;;;;;1.63;1.52;;;;;;;;;;5114842;28;20039;-78
2022/11/08 02:45:49;;;;;;;1.33;1.30;;;;;;;;;;5114579;28;20482;-77
2022/11/08 02:48:15;;;;;;;0.50;0.50;;;;;;;;;;5095967;28;20034;-75
2022/11/08 02:50:40;;;;;;;1.65;0.80;;;;;;;;;;5113900;28;20035;-77
2022/11/08 02:53:06;;;;;;;0.85;0.70;;;;;;;;;;5112473;28;20043;-76
2022/11/08 02:55:32;;;;;;;1.67;0.68;;;;;;;;;;5112743;28;20031;-76
2022/11/08 02:57:58;;;;;;;1.63;1.52;;;;;;;;;;5112868;28;20088;-76
2022/11/08 03:00:23;;;;;;;2.15;1.63;;;;;;;;;;5112030;28;20039;-75
2022/11/08 03:02:55;;;;;;;1.95;1.80;;;;;;;;;;5112432;28;20031;-76
2022/11/08 03:05:20;;;;;;;1.20;0.80;;;;;;;;;;5112460;28;20425;-76
2022/11/08 03:07:46;;;;;;;0.60;0.60;;;;;;;;;;5112354;28;20115;-75
2022/11/08 03:10:11;;;;;;;0.60;0.60;;;;;;;;;;5112500;28;20088;-75
2022/11/08 03:12:37;;;;;;;1.55;1.50;;;;;;;;;;5112532;28;20035;-76
2022/11/08 03:15:06;;;;;;;2.85;0.77;;;;;;;;;;5112110;28;20038;-75
2022/11/08 03:17:32;;;;;;;0.70;0.70;;;;;;;;;;5112388;28;20490;-76
2022/11/08 03:19:57;;;;;;;0.80;0.80;;;;;;;;;;5112314;28;20039;-76
2022/11/08 03:22:23;;;;;;;0.63;0.50;;;;;;;;;;5111818;28;20378;-75
2022/11/08 03:24:48;;;;;;;1.67;1.48;;;;;;;;;;5112099;28;20028;-76
2022/11/08 03:27:14;;;;;;;2.35;2.17;;;;;;;;;;5112296;28;20029;-76
2022/11/08 03:29:39;;;;;;;1.45;1.35;;;;;;;;;;5111780;28;20831;-76
2022/11/08 03:32:05;;;;;;;0.68;0.50;;;;;;;;;;5112316;28;20877;-76
2022/11/08 03:34:30;;;;;;;0.70;0.70;;;;;;;;;;5093844;28;20375;-75
2022/11/08 03:36:55;;;;;;;0.60;0.60;;;;;;;;;;5111716;28;20042;-75
2022/11/08 03:39:21;;;;;;;0.70;0.70;;;;;;;;;;5111913;28;20046;-75
2022/11/08 03:41:46;;;;;;;1.02;0.70;;;;;;;;;;5111787;28;20034;-76
2022/11/08 03:44:11;;;;;;;1.85;1.73;;;;;;;;;;5111358;28;20092;-76
2022/11/08 03:46:37;;;;;;;0.65;0.60;;;;;;;;;;5111962;28;20042;-75
2022/11/08 03:49:02;;;;;;;1.10;0.70;;;;;;;;;;5110948;28;20031;-75
2022/11/08 03:51:27;;;;;;;1.20;1.10;;;;;;;;;;5112935;28;20067;-75
2022/11/08 03:53:53;;;;;;;2.03;1.60;;;;;;;;;;5113393;28;20104;-75
2022/11/08 03:56:18;;;;;;;0.73;0.68;;;;;;;;;;5095303;28;20052;-75
2022/11/08 03:58:43;;;;;;;0.63;0.63;;;;;;;;;;5113045;28;20041;-75
2022/11/08 04:01:09;;;;;;;0.73;0.73;;;;;;;;;;5113145;28;20112;-75
2022/11/08 04:03:34;;;;;;;0.68;0.68;;;;;;;;;;5112855;28;20074;-78
2022/11/08 04:06:00;;;;;;;0.90;0.77;;;;;;;;;;5113045;28;20031;-80
2022/11/08 04:08:26;;;;;;;1.00;0.70;;;;;;;;;;5113531;28;20089;-79
2022/11/08 04:10:55;;;;;;;3.20;1.95;;;;;;;;;;5113847;28;20061;-83
2022/11/08 04:16:05;;;;;;;1.02;0.98;;;;;;;;;;5114395;28;20039;-83
2022/11/08 04:21:19;;;;;;;0.95;0.77;;;;;;;;;;5112877;28;20127;-79
2022/11/08 04:23:45;;;;;;;0.98;0.70;;;;;;;;;;5113000;28;20039;-80
2022/11/08 04:26:10;;;;;;;0.77;0.77;;;;;;;;;;5113214;28;20031;-79
2022/11/08 04:28:37;;;;;;;2.00;1.90;;;;;;;;;;5112897;28;20028;-80
2022/11/08 04:31:10;;;;;;;1.33;0.90;;;;;;;;;;5113148;28;20031;-79
2022/11/08 04:33:35;;;;;;;1.10;0.90;;;;;;;;;;5112997;28;20050;-79
2022/11/08 04:36:05;;;;;;;0.82;0.80;;;;;;;;;;5112311;28;20031;-80
2022/11/08 04:38:31;;;;;;;1.75;1.65;;;;;;;;;;5112967;28;20036;-79
2022/11/08 04:41:10;;;;;;;0.98;0.80;;;;;;;;;;5112894;28;20088;-79
2022/11/08 04:43:36;;;;;;;1.08;0.77;;;;;;;;;;5112596;28;20058;-80
2022/11/08 04:46:03;;;;;;;1.23;0.85;;;;;;;;;;5112639;28;20027;-80
2022/11/08 04:48:29;;;;;;;1.02;0.93;;;;;;;;;;5112309;28;20070;-81
2022/11/08 04:50:54;;;;;;;1.33;1.00;;;;;;;;;;5111787;28;20069;-81
2022/11/08 04:53:19;;;;;;;2.25;1.75;;;;;;;;;;5111816;28;20058;-80
2022/11/08 04:55:45;;;;;;;1.25;1.10;;;;;;;;;;5093539;28;20031;-80
2022/11/08 04:58:10;;;;;;;1.50;1.10;;;;;;;;;;5111441;28;20568;-80
2022/11/08 05:00:36;;;;;;;1.67;1.50;;;;;;;;;;5111645;28;20067;-81
2022/11/08 05:03:01;;;;;;;1.52;1.42;;;;;;;;;;5111510;28;20401;-80
2022/11/08 05:05:27;;;;;;;1.88;1.77;;;;;;;;;;5112001;28;20056;-81
2022/11/08 05:07:52;;;;;;;1.45;1.00;;;;;;;;;;5112814;28;20043;-85
2022/11/08 05:10:18;;;;;;;0.73;0.68;;;;;;;;;;5112551;28;20576;-83
2022/11/08 05:12:43;;;;;;;1.50;1.00;;;;;;;;;;5112322;28;20031;-85
2022/11/08 05:15:09;;;;;;;2.03;1.92;;;;;;;;;;5112671;28;20571;-84
2022/11/08 05:17:34;;;;;;;1.83;1.73;;;;;;;;;;5112587;28;20032;-87
2022/11/08 05:25:28;;;;;;;6.78;1.23;;;;;;;;;;5111124;28;20066;-87
2022/11/08 05:27:53;;;;;;;2.58;0.90;;;;;;;;;;5112805;28;20035;-85
2022/11/08 05:30:19;;;;;;;1.25;1.00;;;;;;;;;;5111335;28;20035;-80
2022/11/08 05:32:44;;;;;;;1.73;1.58;;;;;;;;;;5111434;28;20049;-80
2022/11/08 05:35:09;;;;;;;0.70;0.70;;;;;;;;;;5111201;28;20447;-80
2022/11/08 05:37:35;;;;;;;2.22;2.08;;;;;;;;;;5111394;28;20023;-80
2022/11/08 05:40:00;;;;;;;1.15;1.00;;;;;;;;;;5111432;28;20489;-79
2022/11/08 05:42:26;;;;;;;1.02;0.75;;;;;;;;;;5111399;28;20106;-81
2022/11/08 05:44:51;;;;;;;2.90;1.77;;;;;;;;;;5093408;28;20080;-80
2022/11/08 05:47:16;;;;;;;1.10;0.93;;;;;;;;;;5113562;28;20110;-82
2022/11/08 05:49:42;;;;;;;2.17;1.80;;;;;;;;;;5115818;28;20027;-81
2022/11/08 05:52:07;;;;;;;1.92;1.83;;;;;;;;;;5098180;28;20031;-82
2022/11/08 05:54:32;;;;;;;0.82;0.77;;;;;;;;;;5116290;28;20027;-80
2022/11/08 05:56:58;;;;;;;1.33;1.00;;;;;;;;;;5115853;28;20039;-81
2022/11/08 05:59:23;;;;;;;1.95;0.95;;;;;;;;;;5097621;28;20043;-81
2022/11/08 06:01:49;;;;;;;2.20;0.90;;;;;;;;;;5115875;28;20524;-82
2022/11/08 06:04:14;;;;;;;1.52;1.42;;;;;;;;;;5097313;28;20051;-82
2022/11/08 06:06:39;;;;;;;1.92;0.90;;;;;;;;;;5097848;28;20023;-81
2022/11/08 06:09:05;;;;;;;2.15;1.95;;;;;;;;;;5116171;28;20027;-83
2022/11/08 06:11:30;;;;;;;1.60;1.00;;;;;;;;;;5116083;28;20066;-83
2022/11/08 06:13:55;;;;;;;1.10;0.80;;;;;;;;;;5112259;28;20072;-86
2022/11/08 06:16:22;;;;;;;2.38;2.17;;;;;;;;;;5115866;28;20032;-86
2022/11/08 06:18:47;;;;;;;1.27;1.10;;;;;;;;;;5116165;28;20244;-86
2022/11/08 06:21:14;;;;;;;2.05;1.95;;;;;;;;;;5097597;28;20066;-94
2022/11/08 06:23:39;;;;;;;1.67;1.58;;;;;;;;;;5116037;28;20499;-87
2022/11/08 06:26:05;;;;;;;1.60;1.50;;;;;;;;;;5115913;28;20023;-88
2022/11/08 06:28:30;;;;;;;2.47;1.92;;;;;;;;;;5115672;28;20031;-90
2022/11/08 06:30:59;;;;;;;1.63;0.80;;;;;;;;;;5115907;28;20039;-85
2022/11/08 06:33:24;;;;;;;1.58;1.48;;;;;;;;;;5097178;28;20134;-84
2022/11/08 06:35:50;;;;;;;1.02;0.88;;;;;;;;;;5115261;28;20441;-83
2022/11/08 06:38:15;;;;;;;1.52;0.80;;;;;;;;;;5115121;28;20042;-84
2022/11/08 06:40:41;;;;;;;1.92;1.70;;;;;;;;;;5115300;28;20409;-82
2022/11/08 06:43:06;;;;;;;1.95;0.70;;;;;;;;;;5114296;28;20040;-84
2022/11/08 06:45:32;;;;;;;2.17;0.95;;;;;;;;;;5114536;28;20054;-81
2022/11/08 06:47:57;;;;;;;1.70;1.60;;;;;;;;;;5095450;28;20046;-81
2022/11/08 06:50:23;;;;;;;0.85;0.70;;;;;;;;;;5107621;28;20031;-84
2022/11/08 06:52:54;;;;;;;1.92;1.83;;;;;;;;;;5088320;28;20046;-83
2022/11/08 06:55:20;;;;;;;1.58;1.48;;;;;;;;;;5108056;27;20032;-90
2022/11/08 06:57:45;;;;;;;1.05;1.00;;;;;;;;;;5096592;28;20042;-91
2022/11/08 07:00:11;;;;;;;1.70;1.55;;;;;;;;;;5114791;28;20035;-85
2022/11/08 07:02:36;;;;;;;1.10;1.00;;;;;;;;;;5114550;28;20100;-85
2022/11/08 07:05:01;;;;;;;1.98;1.77;;;;;;;;;;5114004;28;20524;-84
2022/11/08 07:07:27;;;;;;;1.30;1.20;;;;;;;;;;5114850;28;20464;-87
2022/11/08 07:09:52;;;;;;;1.88;1.77;;;;;;;;;;5102195;28;20100;-87
2022/11/08 07:12:17;;;;;;;1.45;1.35;;;;;;;;;;5076178;28;20057;-87
2022/11/08 07:14:43;;;;;;;1.83;1.73;;;;;;;;;;5094387;28;20031;-86
2022/11/08 07:17:08;;;;;;;1.60;1.50;;;;;;;;;;5076139;28;20114;-84
2022/11/08 07:19:33;;;;;;;1.70;1.60;;;;;;;;;;5075551;28;20028;-84
2022/11/08 07:21:59;;;;;;;3.08;1.00;;;;;;;;;;5094042;28;20036;-85
2022/11/08 07:24:24;;;;;;;0.95;0.82;;;;;;;;;;5075263;28;20032;-82
2022/11/08 07:26:49;;;;;;;1.70;1.60;;;;;;;;;;5101608;27;20042;-83
2022/11/08 07:29:15;;;;;;;1.42;1.33;;;;;;;;;;5108359;27;20039;-84
2022/11/08 07:31:40;;;;;;;3.67;1.25;;;;;;;;;;5102478;27;20117;-82
2022/11/08 07:34:06;;;;;;;1.15;0.80;;;;;;;;;;5098394;27;20035;-84
2022/11/08 07:36:31;;;;;;;1.20;1.08;;;;;;;;;;5114027;28;20067;-84
2022/11/08 07:38:56;;;;;;;1.77;1.67;;;;;;;;;;5101902;28;20039;-85
2022/11/08 07:41:21;;;;;;;1.70;1.52;;;;;;;;;;5092923;28;20059;-83
2022/11/08 07:43:48;;;;;;;1.60;1.50;;;;;;;;;;5113952;28;20046;-85
2022/11/08 07:46:13;;;;;;;1.75;1.65;;;;;;;;;;5120060;27;20060;-82
2022/11/08 07:48:38;;;;;;;5.90;1.88;;;;;;;;;;5104308;28;20031;-85
2022/11/08 07:51:04;;;;;;;1.88;1.77;;;;;;;;;;5114002;28;20043;-85
2022/11/08 07:53:29;;;;;;;2.25;2.05;;;;;;;;;;5113930;27;20477;-86
2022/11/08 07:55:55;;;;;;;2.17;0.90;;;;;;;;;;5110400;27;20035;-85
2022/11/08 07:58:20;;;;;;;1.52;1.42;;;;;;;;;;5094451;28;20036;-85
2022/11/08 08:00:48;;;;;;;0.80;0.80;;;;;;;;;;5093807;28;20040;-86
2022/11/08 08:03:14;;;;;;;3.33;0.82;;;;;;;;;;5106585;28;20032;-86
2022/11/08 08:05:41;;;;;;;3.85;0.90;;;;;;;;;;5113874;28;20034;-86
2022/11/08 08:08:07;;;;;;;1.20;0.60;;;;;;;;;;5096534;28;20506;-84
2022/11/08 08:10:33;;;;;;;1.40;1.30;;;;;;;;;;5085086;28;20035;-83
2022/11/08 08:12:58;;;;;;;1.10;1.00;;;;;;;;;;5111860;27;20028;-84
2022/11/08 08:15:24;;;;;;;1.58;1.08;;;;;;;;;;5115950;28;20039;-90
2022/11/08 08:17:50;;;;;;;3.38;1.35;;;;;;;;;;5097665;28;20433;-93
2022/11/08 08:20:15;;;;;;;6.40;1.27;;;;;;;;;;5114803;28;20050;-88
2022/11/08 08:22:44;;;;;;;8.77;1.67;;;;;;;;;;5114335;28;20038;-90
2022/11/08 08:25:10;;;;;;;8.10;1.55;;;;;;;;;;5114670;28;20065;-90
2022/11/08 08:27:35;;;;;;;15.35;2.53;;;;;;;;;;5114806;28;20038;-85
2022/11/08 08:30:00;;;;;;;9.20;1.40;;;;;;;;;;5114631;28;20063;-86
2022/11/08 08:32:26;;;;;;;4.03;2.85;;;;;;;;;;5114161;28;20576;-88
2022/11/08 08:34:51;;;;;;;6.95;1.50;;;;;;;;;;5113783;28;20107;-86
2022/11/08 08:37:16;;;;;;;6.43;2.08;;;;;;;;;;5113705;28;20027;-85
2022/11/08 08:39:42;;;;;;;3.80;1.45;;;;;;;;;;5113384;28;20055;-87
2022/11/08 08:42:07;;;;;;;2.70;1.83;;;;;;;;;;5114116;28;20034;-85
2022/11/08 08:44:32;;;;;;;3.33;2.00;;;;;;;;;;5095417;28;20028;-87
2022/11/08 08:46:58;;;;;;;1.92;1.20;;;;;;;;;;5113321;28;20065;-86
2022/11/08 08:49:23;;;;;;;1.35;1.20;;;;;;;;;;5095609;28;20038;-85
2022/11/08 08:51:49;;;;;;;1.38;0.85;;;;;;;;;;5113319;28;20028;-87
2022/11/08 08:54:14;;;;;;;2.30;0.98;;;;;;;;;;5113396;28;20106;-86
2022/11/08 08:56:40;;;;;;;2.95;1.88;;;;;;;;;;5113104;28;20072;-89
2022/11/08 08:59:05;;;;;;;1.73;1.30;;;;;;;;;;5094982;28;20041;-87
2022/11/08 09:01:30;;;;;;;3.08;2.22;;;;;;;;;;5113076;28;20051;-88
2022/11/08 09:03:57;;;;;;;1.33;0.90;;;;;;;;;;5112097;28;20081;-83
2022/11/08 09:06:22;;;;;;;2.28;1.95;;;;;;;;;;5111844;28;20040;-82
2022/11/08 09:08:48;;;;;;;2.33;2.13;;;;;;;;;;5111359;28;20043;-82
2022/11/08 09:11:13;;;;;;;2.60;1.02;;;;;;;;;;5111315;28;20173;-83
2022/11/08 09:13:38;;;;;;;4.55;1.10;;;;;;;;;;5111826;28;20096;-83
2022/11/08 09:16:06;;;;;;;2.90;1.08;;;;;;;;;;5111676;28;20390;-85
2022/11/08 09:18:32;;;;;;;3.10;1.67;;;;;;;;;;5113302;28;20035;-92
2022/11/08 09:20:57;;;;;;;2.05;0.90;;;;;;;;;;5115751;28;20486;-89
2022/11/08 09:23:23;;;;;;;2.13;1.75;;;;;;;;;;5118676;28;20035;-90
2022/11/08 09:25:48;;;;;;;1.50;1.30;;;;;;;;;;5117914;28;20114;-84
2022/11/08 09:28:14;;;;;;;2.72;1.30;;;;;;;;;;5117108;28;20043;-85
2022/11/08 09:30:39;;;;;;;2.05;1.95;;;;;;;;;;5117236;28;20031;-88
2022/11/08 09:33:05;;;;;;;1.77;1.67;;;;;;;;;;5117517;28;20035;-86
2022/11/08 09:35:31;;;;;;;1.77;1.67;;;;;;;;;;5117048;28;20035;-88
2022/11/08 09:37:57;;;;;;;2.42;1.70;;;;;;;;;;5116853;28;20038;-86
2022/11/08 09:40:26;;;;;;;1.42;1.10;;;;;;;;;;5115625;28;20036;-86
2022/11/08 09:43:10;;;;;;;2.85;1.77;;;;;;;;;;5116328;28;20785;-85
2022/11/08 09:45:45;;;;;;;18.75;1.65;;;;;;;;;;5115982;28;20084;-83
2022/11/08 09:48:19;;;;;;;2.47;1.73;;;;;;;;;;5104970;28;20035;-84
2022/11/08 09:50:45;;;;;;;0.75;0.75;;;;;;;;;;5116110;28;20031;-81
2022/11/08 09:53:17;;;;;;;2.00;1.00;;;;;;;;;;5115740;28;20554;-83
2022/11/08 09:56:12;;;;;;;2.95;0.95;;;;;;;;;;5097380;28;20088;-82
2022/11/08 09:58:42;;;;;;;3.00;1.77;;;;;;;;;;5075982;28;20065;-82
2022/11/08 10:01:10;;;;;;;5.35;1.73;;;;;;;;;;5115464;28;20118;-86
2022/11/08 10:03:35;;;;;;;1.33;1.00;;;;;;;;;;5096947;28;20048;-83
2022/11/08 10:06:09;;;;;;;1.63;1.52;;;;;;;;;;5116291;28;20092;-89
2022/11/08 10:08:41;;;;;;;1.92;1.83;;;;;;;;;;5115033;28;20043;-81
2022/11/08 10:11:07;;;;;;;2.00;0.93;;;;;;;;;;5115210;28;20036;-83
2022/11/08 10:13:46;;;;;;;0.65;0.65;;;;;;;;;;5115309;28;20087;-82
2022/11/08 10:16:25;;;;;;;5.78;1.70;;;;;;;;;;5114547;28;20035;-82
2022/11/08 10:18:56;;;;;;;1.33;1.10;;;;;;;;;;5114477;28;20441;-81
2022/11/08 10:21:30;;;;;;;2.33;2.08;;;;;;;;;;5115119;28;20042;-82
2022/11/08 10:24:19;;;;;;;2.42;1.80;;;;;;;;;;5111803;28;20039;-81
2022/11/08 10:26:45;;;;;;;7.22;1.30;;;;;;;;;;5114693;28;20035;-81
2022/11/08 10:29:16;;;;;;;4.30;1.58;;;;;;;;;;5096869;28;20024;-83
2022/11/08 10:31:43;;;;;;;4.72;1.75;;;;;;;;;;5114414;28;20081;-80
2022/11/08 10:34:11;;;;;;;1.77;1.63;;;;;;;;;;5114705;28;20043;-81
2022/11/08 10:36:39;;;;;;;2.33;1.88;;;;;;;;;;5115491;28;20031;-82
2022/11/08 10:39:16;;;;;;;5.07;1.90;;;;;;;;;;5114344;28;20035;-82
2022/11/08 10:41:54;;;;;;;1.75;1.65;;;;;;;;;;5115794;28;20031;-81
2022/11/08 10:44:20;;;;;;;1.92;1.65;;;;;;;;;;5114959;28;20042;-82
2022/11/08 10:46:47;;;;;;;6.38;1.00;;;;;;;;;;5114548;28;20040;-83
2022/11/08 10:49:13;;;;;;;1.40;1.02;;;;;;;;;;5096340;28;20032;-81
2022/11/08 10:51:38;;;;;;;2.47;1.73;;;;;;;;;;5113717;28;20509;-83
2022/11/08 10:54:03;;;;;;;3.65;1.83;;;;;;;;;;5112430;28;20092;-82
2022/11/08 10:56:29;;;;;;;7.72;1.73;;;;;;;;;;5113532;28;20069;-82
2022/11/08 10:58:54;;;;;;;3.90;1.83;;;;;;;;;;5113043;28;20035;-78
2022/11/08 11:01:21;;;;;;;2.47;1.67;;;;;;;;;;5112335;28;20063;-78
2022/11/08 11:03:47;;;;;;;3.08;1.67;;;;;;;;;;5112489;28;20063;-78
2022/11/08 11:06:20;;;;;;;2.15;1.83;;;;;;;;;;5112715;28;20067;-79
2022/11/08 11:08:52;;;;;;;1.45;1.10;;;;;;;;;;5112743;28;20032;-79
2022/11/08 11:11:20;;;;;;;2.53;1.85;;;;;;;;;;5113022;28;20038;-78
2022/11/08 11:14:03;;;;;;;1.60;1.10;;;;;;;;;;5112353;28;20043;-83
2022/11/08 11:16:28;;;;;;;1.90;1.65;;;;;;;;;;5112546;28;20036;-83
2022/11/08 11:18:54;;;;;;;1.67;1.23;;;;;;;;;;5112830;28;20446;-82
2022/11/08 11:21:22;;;;;;;6.25;2.05;;;;;;;;;;5112271;28;20040;-82
2022/11/08 11:23:49;;;;;;;1.85;1.75;;;;;;;;;;5112442;28;20039;-82
2022/11/08 11:26:38;;;;;;;2.47;1.58;;;;;;;;;;5112687;28;20092;-81
2022/11/08 11:29:04;;;;;;;3.38;1.60;;;;;;;;;;5113170;28;20096;-81
2022/11/08 11:31:37;;;;;;;6.70;1.50;;;;;;;;;;5112360;28;20032;-81
2022/11/08 11:34:18;;;;;;;6.65;1.80;;;;;;;;;;5094495;28;20059;-80
2022/11/08 11:36:43;;;;;;;3.25;0.93;;;;;;;;;;5112651;28;20035;-81
2022/11/08 11:39:27;;;;;;;8.60;1.33;;;;;;;;;;5094227;28;20455;-81
2022/11/08 11:41:57;;;;;;;4.10;1.65;;;;;;;;;;5112315;28;20032;-81
2022/11/08 11:44:38;;;;;;;3.42;1.88;;;;;;;;;;5093105;28;20041;-82
2022/11/08 11:47:11;;;;;;;2.08;1.80;;;;;;;;;;5112205;28;20039;-81
2022/11/08 11:49:36;;;;;;;7.35;2.00;;;;;;;;;;5093729;28;20032;-81
2022/11/08 11:52:02;;;;;;;3.17;0.98;;;;;;;;;;5113557;28;20034;-82
2022/11/08 11:54:29;;;;;;;12.55;1.23;;;;;;;;;;5113770;28;20439;-81
2022/11/08 11:56:54;;;;;;;1.38;1.00;;;;;;;;;;5113660;28;20115;-81
2022/11/08 11:59:20;;;;;;;6.68;1.70;;;;;;;;;;5113825;28;20059;-81
2022/11/08 12:02:05;;;;;;;4.15;1.80;;;;;;;;;;5094712;28;20575;-81
2022/11/08 12:04:50;;;;;;;2.30;1.83;;;;;;;;;;5095443;28;20051;-82
2022/11/08 12:07:15;;;;;;;1.98;1.42;;;;;;;;;;5113356;28;20035;-82
2022/11/08 12:09:52;;;;;;;1.63;1.52;;;;;;;;;;5113856;28;20040;-81
2022/11/08 12:12:33;;;;;;;3.60;1.70;;;;;;;;;;5113532;28;20110;-81
2022/11/08 12:15:13;;;;;;;1.60;1.50;;;;;;;;;;5112364;28;20039;-81
2022/11/08 12:17:42;;;;;;;6.78;1.25;;;;;;;;;;5113111;28;20040;-81
2022/11/08 12:20:26;;;;;;;4.00;1.95;;;;;;;;;;5113301;28;20046;-81
2022/11/08 12:22:54;;;;;;;2.55;2.08;;;;;;;;;;5112658;28;20495;-81
2022/11/08 12:25:38;;;;;;;7.63;2.08;;;;;;;;;;5085534;28;20040;-78
2022/11/08 12:28:23;;;;;;;2.53;1.75;;;;;;;;;;5112466;28;20497;-77
2022/11/08 12:30:56;;;;;;;2.83;0.82;;;;;;;;;;5103190;27;20409;-77
2022/11/08 12:33:30;;;;;;;2.13;0.80;;;;;;;;;;5111296;28;20031;-76
2022/11/08 12:36:11;;;;;;;3.38;1.08;;;;;;;;;;5093800;28;20034;-76
2022/11/08 12:38:42;;;;;;;5.00;1.60;;;;;;;;;;5111233;28;20039;-77
2022/11/08 12:41:16;;;;;;;2.97;1.73;;;;;;;;;;5111674;28;20031;-77
2022/11/08 12:43:51;;;;;;;2.72;1.70;;;;;;;;;;5111475;28;20489;-76
2022/11/08 12:46:17;;;;;;;2.20;0.65;;;;;;;;;;5111277;28;20092;-76
2022/11/08 12:49:18;;;;;;;3.40;2.33;;;;;;;;;;5111025;28;20051;-76
2022/11/08 12:51:58;;;;;;;5.40;2.20;;;;;;;;;;5046309;28;20093;-80
2022/11/08 12:54:29;;;;;;;4.28;1.52;;;;;;;;;;5103286;28;20040;-80
2022/11/08 12:56:56;;;;;;;3.15;1.15;;;;;;;;;;5091836;28;20065;-80
2022/11/08 12:59:24;;;;;;;3.88;0.70;;;;;;;;;;5109855;28;20031;-80
2022/11/08 13:01:51;;;;;;;1.20;0.70;;;;;;;;;;5092239;28;20083;-80
2022/11/08 13:04:20;;;;;;;2.35;1.85;;;;;;;;;;5110146;28;20062;-80
2022/11/08 13:07:02;;;;;;;2.58;1.13;;;;;;;;;;5109439;28;20054;-80
2022/11/08 13:09:37;;;;;;;5.20;2.17;;;;;;;;;;5111145;28;20035;-82
2022/11/08 13:12:03;;;;;;;11.65;2.17;;;;;;;;;;5110814;28;20061;-84
2022/11/08 13:14:28;;;;;;;8.10;3.53;;;;;;;;;;5111687;28;20031;-84
2022/11/08 13:17:13;;;;;;;5.75;2.03;;;;;;;;;;5112581;28;20027;-87
2022/11/08 13:19:50;;;;;;;9.20;1.63;;;;;;;;;;5111445;28;20031;-82
2022/11/08 13:22:27;;;;;;;9.55;3.08;;;;;;;;;;5111278;28;20110;-83
2022/11/08 13:24:53;;;;;;;12.18;2.33;;;;;;;;;;5110981;28;20032;-82
2022/11/08 13:27:22;;;;;;;7.47;2.10;;;;;;;;;;5111503;28;20031;-84
2022/11/08 13:29:48;;;;;;;8.20;2.60;;;;;;;;;;5112073;28;20038;-85
2022/11/08 13:32:22;;;;;;;8.00;2.05;;;;;;;;;;5111984;28;20489;-84
2022/11/08 13:34:58;;;;;;;14.77;4.25;;;;;;;;;;5112259;28;20038;-87
2022/11/08 13:37:30;;;;;;;18.70;3.17;;;;;;;;;;5111523;28;20041;-81
2022/11/08 13:40:01;;;;;;;13.40;3.50;;;;;;;;;;5110197;28;20031;-79
2022/11/08 13:42:37;;;;;;;17.33;2.53;;;;;;;;;;5109735;28;20569;-79
2022/11/08 13:45:02;;;;;;;;;;;;;;;;;;5110218;28;20853;-79
2022/11/08 13:47:30;;;;;;;9.40;3.00;;;;;;;;;;5091317;28;19922;-79
2022/11/08 13:50:15;;;;;;;16.40;4.03;;;;;;;;;;5109710;28;20849;-79
2022/11/08 13:52:45;;;;;;;11.10;1.60;;;;;;;;;;5111168;28;20028;-79
2022/11/08 13:55:29;;;;;;;10.93;2.10;;;;;;;;;;5111251;28;20023;-79
2022/11/08 13:57:58;;;;;;;8.20;3.10;;;;;;;;;;5110901;28;20501;-79
2022/11/08 14:00:53;;;;;;;9.90;1.38;;;;;;;;;;5111605;28;20433;-80
2022/11/08 14:03:31;;;;;;;10.88;1.83;;;;;;;;;;5088907;28;20130;-80
2022/11/08 14:05:59;;;;;;;3.47;2.00;;;;;;;;;;5110748;28;20045;-80
2022/11/08 14:08:27;;;;;;;9.15;2.60;;;;;;;;;;5113396;28;20042;-81
2022/11/08 14:11:05;;;;;;;9.32;2.05;;;;;;;;;;5096852;28;20023;-81
2022/11/08 14:13:42;;;;;;;10.30;1.20;;;;;;;;;;5114616;28;20100;-81
2022/11/08 14:16:20;;;;;;;4.38;1.83;;;;;;;;;;5091481;28;20030;-80
2022/11/08 14:18:45;;;;;;;5.75;2.58;;;;;;;;;;5105446;27;20031;-80
2022/11/08 14:21:15;;;;;;;2.85;1.20;;;;;;;;;;5092518;28;20394;-80
2022/11/08 14:23:41;;;;;;;5.03;2.30;;;;;;;;;;5111109;28;20028;-80
2022/11/08 14:26:06;;;;;;;3.25;0.90;;;;;;;;;;5111120;28;20769;-80
2022/11/08 14:28:33;;;;;;;4.53;1.55;;;;;;;;;;5092621;28;20039;-81
2022/11/08 14:30:59;;;;;;;4.15;0.82;;;;;;;;;;5111310;28;20486;-80
2022/11/08 14:33:31;;;;;;;2.45;0.93;;;;;;;;;;5109619;28;20042;-80
2022/11/08 14:35:59;;;;;;;4.00;1.02;;;;;;;;;;5110193;28;20099;-81
2022/11/08 14:38:25;;;;;;;3.78;0.73;;;;;;;;;;5092968;28;20398;-81
2022/11/08 14:40:55;;;;;;;2.55;1.63;;;;;;;;;;5110952;28;20084;-81
2022/11/08 14:43:21;;;;;;;5.25;1.65;;;;;;;;;;5110328;28;20050;-78
2022/11/08 14:45:47;;;;;;;1.90;0.95;;;;;;;;;;5110830;28;20610;-80
2022/11/08 14:48:23;;;;;;;2.88;1.52;;;;;;;;;;5110054;28;20812;-80
2022/11/08 14:50:49;;;;;;;2.38;1.42;;;;;;;;;;5091135;28;20375;-80
2022/11/08 14:53:17;;;;;;;1.90;1.55;;;;;;;;;;5090905;28;20023;-80
2022/11/08 14:55:42;;;;;;;2.17;0.85;;;;;;;;;;5108897;28;20430;-80
2022/11/08 14:58:12;;;;;;;1.15;1.10;;;;;;;;;;5108541;28;20043;-80
2022/11/08 15:00:39;;;;;;;4.85;1.33;;;;;;;;;;5109242;28;20035;-81
2022/11/08 15:03:05;;;;;;;2.13;1.52;;;;;;;;;;5090618;28;20028;-80
2022/11/08 15:05:33;;;;;;;1.75;1.63;;;;;;;;;;5108651;28;20051;-80
2022/11/08 15:08:00;;;;;;;1.92;1.77;;;;;;;;;;5090156;28;20081;-79